sensor_id;sensor_type;location;lat;lon;timestamp;P1;durP1;ratioP1;P2;durP2;ratioP2
69542;SDS011;56762;49.494;11.768;2023-04-25T00:01:08;3.95;;;1.80;;
69542;SDS011;56762;49.494;11.768;2023-04-25T00:03:39;3.78;;;2.00;;
69542;SDS011;56762;49.494;11.768;2023-04-25T00:06:07;3.88;;;1.98;;
69542;SDS011;56762;49.494;11.768;2023-04-25T00:08:34;3.40;;;1.70;;
69542;SDS011;56762;49.494;11.768;2023-04-25T00:11:03;3.97;;;1.73;;
69542;SDS011;56762;49.494;11.768;2023-04-25T00:13:32;5.25;;;2.08;;
69542;SDS011;56762;49.494;11.768;2023-04-25T00:16:01;4.15;;;1.77;;
69542;SDS011;56762;49.494;11.768;2023-04-25T00:18:29;4.13;;;1.88;;
69542;SDS011;56762;49.494;11.768;2023-04-25T00:20:59;4.15;;;1.70;;
69542;SDS011;56762;49.494;11.768;2023-04-25T00:23:27;4.17;;;1.77;;
69542;SDS011;56762;49.494;11.768;2023-04-25T00:25:54;3.05;;;1.40;;
69542;SDS011;56762;49.494;11.768;2023-04-25T00:28:22;4.85;;;2.28;;
69542;SDS011;56762;49.494;11.768;2023-04-25T00:30:51;3.67;;;1.70;;
69542;SDS011;56762;49.494;11.768;2023-04-25T00:33:19;4.60;;;2.00;;
69542;SDS011;56762;49.494;11.768;2023-04-25T00:35:47;3.23;;;1.53;;
69542;SDS011;56762;49.494;11.768;2023-04-25T00:38:15;3.28;;;1.63;;
69542;SDS011;56762;49.494;11.768;2023-04-25T00:40:42;5.65;;;1.80;;
69542;SDS011;56762;49.494;11.768;2023-04-25T00:43:10;3.92;;;1.80;;
69542;SDS011;56762;49.494;11.768;2023-04-25T00:45:38;3.97;;;1.88;;
69542;SDS011;56762;49.494;11.768;2023-04-25T00:48:08;5.10;;;2.00;;
69542;SDS011;56762;49.494;11.768;2023-04-25T00:50:36;4.55;;;1.67;;
69542;SDS011;56762;49.494;11.768;2023-04-25T00:53:04;4.38;;;1.77;;
69542;SDS011;56762;49.494;11.768;2023-04-25T00:55:32;4.32;;;1.92;;
69542;SDS011;56762;49.494;11.768;2023-04-25T00:58:00;3.78;;;1.85;;
69542;SDS011;56762;49.494;11.768;2023-04-25T01:00:28;5.90;;;2.00;;
69542;SDS011;56762;49.494;11.768;2023-04-25T01:02:56;3.60;;;1.70;;
69542;SDS011;56762;49.494;11.768;2023-04-25T01:05:26;3.63;;;1.77;;
69542;SDS011;56762;49.494;11.768;2023-04-25T01:07:53;3.92;;;2.10;;
69542;SDS011;56762;49.494;11.768;2023-04-25T01:10:21;3.15;;;1.60;;
69542;SDS011;56762;49.494;11.768;2023-04-25T01:12:49;5.37;;;2.23;;
69542;SDS011;56762;49.494;11.768;2023-04-25T01:15:17;5.85;;;1.90;;
69542;SDS011;56762;49.494;11.768;2023-04-25T01:17:45;4.05;;;1.90;;
69542;SDS011;56762;49.494;11.768;2023-04-25T01:20:13;4.32;;;2.20;;
69542;SDS011;56762;49.494;11.768;2023-04-25T01:22:43;3.80;;;1.90;;
69542;SDS011;56762;49.494;11.768;2023-04-25T01:25:11;4.40;;;1.80;;
69542;SDS011;56762;49.494;11.768;2023-04-25T01:27:38;4.38;;;2.15;;
69542;SDS011;56762;49.494;11.768;2023-04-25T01:30:08;5.65;;;2.15;;
69542;SDS011;56762;49.494;11.768;2023-04-25T01:32:36;4.72;;;2.00;;
69542;SDS011;56762;49.494;11.768;2023-04-25T01:35:05;3.85;;;1.83;;
69542;SDS011;56762;49.494;11.768;2023-04-25T01:40:05;4.63;;;2.03;;
69542;SDS011;56762;49.494;11.768;2023-04-25T01:42:34;5.28;;;2.38;;
69542;SDS011;56762;49.494;11.768;2023-04-25T01:45:04;4.05;;;1.90;;
69542;SDS011;56762;49.494;11.768;2023-04-25T01:47:33;4.53;;;2.40;;
69542;SDS011;56762;49.494;11.768;2023-04-25T01:50:02;5.17;;;1.90;;
69542;SDS011;56762;49.494;11.768;2023-04-25T01:52:30;4.63;;;2.47;;
69542;SDS011;56762;49.494;11.768;2023-04-25T01:54:57;4.70;;;2.20;;
69542;SDS011;56762;49.494;11.768;2023-04-25T01:57:29;5.57;;;1.80;;
69542;SDS011;56762;49.494;11.768;2023-04-25T01:59:58;4.00;;;2.13;;
69542;SDS011;56762;49.494;11.768;2023-04-25T02:02:27;4.23;;;1.90;;
69542;SDS011;56762;49.494;11.768;2023-04-25T02:04:54;5.13;;;2.25;;
69542;SDS011;56762;49.494;11.768;2023-04-25T02:07:22;5.53;;;2.20;;
69542;SDS011;56762;49.494;11.768;2023-04-25T02:09:50;5.05;;;2.05;;
69542;SDS011;56762;49.494;11.768;2023-04-25T02:12:18;4.95;;;2.40;;
69542;SDS011;56762;49.494;11.768;2023-04-25T02:14:47;4.97;;;2.23;;
69542;SDS011;56762;49.494;11.768;2023-04-25T02:17:15;5.38;;;2.70;;
69542;SDS011;56762;49.494;11.768;2023-04-25T02:19:43;4.47;;;2.50;;
69542;SDS011;56762;49.494;11.768;2023-04-25T02:22:11;4.82;;;2.40;;
69542;SDS011;56762;49.494;11.768;2023-04-25T02:24:38;6.72;;;2.75;;
69542;SDS011;56762;49.494;11.768;2023-04-25T02:27:07;4.50;;;2.17;;
69542;SDS011;56762;49.494;11.768;2023-04-25T02:29:34;3.33;;;1.67;;
69542;SDS011;56762;49.494;11.768;2023-04-25T02:32:03;5.55;;;2.15;;
69542;SDS011;56762;49.494;11.768;2023-04-25T02:34:32;5.15;;;2.47;;
69542;SDS011;56762;49.494;11.768;2023-04-25T02:36:59;4.38;;;2.40;;
69542;SDS011;56762;49.494;11.768;2023-04-25T02:39:27;4.67;;;2.50;;
69542;SDS011;56762;49.494;11.768;2023-04-25T02:41:55;5.63;;;2.55;;
69542;SDS011;56762;49.494;11.768;2023-04-25T02:44:23;4.30;;;2.38;;
69542;SDS011;56762;49.494;11.768;2023-04-25T02:46:50;3.75;;;2.13;;
69542;SDS011;56762;49.494;11.768;2023-04-25T02:49:20;4.50;;;2.03;;
69542;SDS011;56762;49.494;11.768;2023-04-25T02:51:47;4.37;;;2.23;;
69542;SDS011;56762;49.494;11.768;2023-04-25T02:54:15;3.78;;;2.22;;
69542;SDS011;56762;49.494;11.768;2023-04-25T02:56:43;4.90;;;2.38;;
69542;SDS011;56762;49.494;11.768;2023-04-25T02:59:10;5.13;;;2.35;;
69542;SDS011;56762;49.494;11.768;2023-04-25T03:01:38;4.65;;;2.40;;
69542;SDS011;56762;49.494;11.768;2023-04-25T03:04:06;6.30;;;2.03;;
69542;SDS011;56762;49.494;11.768;2023-04-25T03:06:35;5.13;;;1.95;;
69542;SDS011;56762;49.494;11.768;2023-04-25T03:09:02;5.28;;;2.10;;
69542;SDS011;56762;49.494;11.768;2023-04-25T03:11:30;4.18;;;2.13;;
69542;SDS011;56762;49.494;11.768;2023-04-25T03:13:58;4.90;;;2.78;;
69542;SDS011;56762;49.494;11.768;2023-04-25T03:16:26;4.20;;;2.10;;
69542;SDS011;56762;49.494;11.768;2023-04-25T03:18:54;5.10;;;2.42;;
69542;SDS011;56762;49.494;11.768;2023-04-25T03:21:22;3.65;;;1.92;;
69542;SDS011;56762;49.494;11.768;2023-04-25T03:23:51;3.75;;;1.85;;
69542;SDS011;56762;49.494;11.768;2023-04-25T03:26:19;4.93;;;2.60;;
69542;SDS011;56762;49.494;11.768;2023-04-25T03:28:46;5.50;;;2.03;;
69542;SDS011;56762;49.494;11.768;2023-04-25T03:31:14;4.82;;;2.40;;
69542;SDS011;56762;49.494;11.768;2023-04-25T03:33:42;5.82;;;2.30;;
69542;SDS011;56762;49.494;11.768;2023-04-25T03:36:09;4.45;;;2.38;;
69542;SDS011;56762;49.494;11.768;2023-04-25T03:38:37;5.43;;;2.58;;
69542;SDS011;56762;49.494;11.768;2023-04-25T03:41:06;5.37;;;2.17;;
69542;SDS011;56762;49.494;11.768;2023-04-25T03:43:34;5.40;;;2.70;;
69542;SDS011;56762;49.494;11.768;2023-04-25T03:46:02;7.53;;;2.63;;
69542;SDS011;56762;49.494;11.768;2023-04-25T03:48:30;5.05;;;2.42;;
69542;SDS011;56762;49.494;11.768;2023-04-25T03:50:58;5.00;;;2.80;;
69542;SDS011;56762;49.494;11.768;2023-04-25T03:53:25;5.17;;;2.60;;
69542;SDS011;56762;49.494;11.768;2023-04-25T03:55:53;4.60;;;2.38;;
69542;SDS011;56762;49.494;11.768;2023-04-25T03:58:22;4.70;;;2.40;;
69542;SDS011;56762;49.494;11.768;2023-04-25T04:00:50;5.45;;;2.83;;
69542;SDS011;56762;49.494;11.768;2023-04-25T04:03:18;4.47;;;2.55;;
69542;SDS011;56762;49.494;11.768;2023-04-25T04:05:47;5.87;;;3.17;;
69542;SDS011;56762;49.494;11.768;2023-04-25T04:08:15;5.85;;;2.80;;
69542;SDS011;56762;49.494;11.768;2023-04-25T04:10:43;6.63;;;3.03;;
69542;SDS011;56762;49.494;11.768;2023-04-25T04:13:10;4.90;;;2.50;;
69542;SDS011;56762;49.494;11.768;2023-04-25T04:15:39;5.35;;;2.90;;
69542;SDS011;56762;49.494;11.768;2023-04-25T04:18:08;5.10;;;2.73;;
69542;SDS011;56762;49.494;11.768;2023-04-25T04:20:36;6.95;;;2.80;;
69542;SDS011;56762;49.494;11.768;2023-04-25T04:23:03;7.40;;;3.22;;
69542;SDS011;56762;49.494;11.768;2023-04-25T04:25:31;6.03;;;3.20;;
69542;SDS011;56762;49.494;11.768;2023-04-25T04:27:59;5.70;;;2.72;;
69542;SDS011;56762;49.494;11.768;2023-04-25T04:30:27;6.90;;;3.60;;
69542;SDS011;56762;49.494;11.768;2023-04-25T04:32:57;7.00;;;3.65;;
69542;SDS011;56762;49.494;11.768;2023-04-25T04:35:25;6.43;;;3.22;;
69542;SDS011;56762;49.494;11.768;2023-04-25T04:37:53;5.72;;;3.05;;
69542;SDS011;56762;49.494;11.768;2023-04-25T04:40:21;7.30;;;3.90;;
69542;SDS011;56762;49.494;11.768;2023-04-25T04:42:49;7.43;;;3.73;;
69542;SDS011;56762;49.494;11.768;2023-04-25T04:45:17;6.88;;;3.63;;
69542;SDS011;56762;49.494;11.768;2023-04-25T04:47:44;7.35;;;3.90;;
69542;SDS011;56762;49.494;11.768;2023-04-25T04:50:14;7.72;;;3.95;;
69542;SDS011;56762;49.494;11.768;2023-04-25T04:52:42;7.22;;;3.70;;
69542;SDS011;56762;49.494;11.768;2023-04-25T04:55:10;6.00;;;3.50;;
69542;SDS011;56762;49.494;11.768;2023-04-25T04:57:37;7.88;;;4.10;;
69542;SDS011;56762;49.494;11.768;2023-04-25T05:00:06;6.88;;;3.67;;
69542;SDS011;56762;49.494;11.768;2023-04-25T05:02:37;7.05;;;3.60;;
69542;SDS011;56762;49.494;11.768;2023-04-25T05:05:06;6.55;;;3.22;;
69542;SDS011;56762;49.494;11.768;2023-04-25T05:07:36;5.43;;;3.23;;
69542;SDS011;56762;49.494;11.768;2023-04-25T05:10:04;7.70;;;3.40;;
69542;SDS011;56762;49.494;11.768;2023-04-25T05:12:32;6.40;;;3.22;;
69542;SDS011;56762;49.494;11.768;2023-04-25T05:15:02;6.43;;;3.00;;
69542;SDS011;56762;49.494;11.768;2023-04-25T05:17:30;6.82;;;3.40;;
69542;SDS011;56762;49.494;11.768;2023-04-25T05:19:59;5.50;;;3.17;;
69542;SDS011;56762;49.494;11.768;2023-04-25T05:22:27;5.18;;;3.28;;
69542;SDS011;56762;49.494;11.768;2023-04-25T05:24:56;5.22;;;3.20;;
69542;SDS011;56762;49.494;11.768;2023-04-25T05:27:23;5.38;;;2.80;;
69542;SDS011;56762;49.494;11.768;2023-04-25T05:29:51;5.53;;;2.80;;
69542;SDS011;56762;49.494;11.768;2023-04-25T05:32:19;7.13;;;2.70;;
69542;SDS011;56762;49.494;11.768;2023-04-25T05:34:47;4.75;;;2.30;;
69542;SDS011;56762;49.494;11.768;2023-04-25T05:37:15;6.03;;;2.63;;
69542;SDS011;56762;49.494;11.768;2023-04-25T05:39:43;5.13;;;2.80;;
69542;SDS011;56762;49.494;11.768;2023-04-25T05:42:12;5.50;;;2.28;;
69542;SDS011;56762;49.494;11.768;2023-04-25T05:44:40;4.80;;;2.37;;
69542;SDS011;56762;49.494;11.768;2023-04-25T05:47:08;4.95;;;2.60;;
69542;SDS011;56762;49.494;11.768;2023-04-25T05:49:36;4.43;;;2.40;;
69542;SDS011;56762;49.494;11.768;2023-04-25T05:52:04;4.80;;;2.63;;
69542;SDS011;56762;49.494;11.768;2023-04-25T05:54:31;4.85;;;2.75;;
69542;SDS011;56762;49.494;11.768;2023-04-25T05:56:59;5.63;;;3.00;;
69542;SDS011;56762;49.494;11.768;2023-04-25T05:59:30;5.40;;;2.50;;
69542;SDS011;56762;49.494;11.768;2023-04-25T06:01:57;5.50;;;2.60;;
69542;SDS011;56762;49.494;11.768;2023-04-25T06:04:29;3.78;;;2.30;;
69542;SDS011;56762;49.494;11.768;2023-04-25T06:06:58;6.68;;;3.67;;
69542;SDS011;56762;49.494;11.768;2023-04-25T06:09:25;6.07;;;2.90;;
69542;SDS011;56762;49.494;11.768;2023-04-25T06:11:53;6.97;;;2.80;;
69542;SDS011;56762;49.494;11.768;2023-04-25T06:14:21;4.25;;;2.42;;
69542;SDS011;56762;49.494;11.768;2023-04-25T06:16:51;6.47;;;2.80;;
69542;SDS011;56762;49.494;11.768;2023-04-25T06:19:19;4.97;;;2.75;;
69542;SDS011;56762;49.494;11.768;2023-04-25T06:21:47;4.83;;;2.37;;
69542;SDS011;56762;49.494;11.768;2023-04-25T06:24:15;4.38;;;2.70;;
69542;SDS011;56762;49.494;11.768;2023-04-25T06:26:43;4.03;;;2.10;;
69542;SDS011;56762;49.494;11.768;2023-04-25T06:29:11;4.60;;;2.60;;
69542;SDS011;56762;49.494;11.768;2023-04-25T06:31:39;6.18;;;2.58;;
69542;SDS011;56762;49.494;11.768;2023-04-25T06:34:08;5.70;;;3.27;;
69542;SDS011;56762;49.494;11.768;2023-04-25T06:36:37;5.03;;;2.60;;
69542;SDS011;56762;49.494;11.768;2023-04-25T06:39:04;5.25;;;2.67;;
69542;SDS011;56762;49.494;11.768;2023-04-25T06:41:32;6.35;;;3.38;;
69542;SDS011;56762;49.494;11.768;2023-04-25T06:44:00;5.93;;;3.17;;
69542;SDS011;56762;49.494;11.768;2023-04-25T06:46:28;8.30;;;4.57;;
69542;SDS011;56762;49.494;11.768;2023-04-25T06:48:55;10.30;;;5.90;;
69542;SDS011;56762;49.494;11.768;2023-04-25T06:51:25;13.32;;;10.30;;
69542;SDS011;56762;49.494;11.768;2023-04-25T06:53:55;6.13;;;4.20;;
69542;SDS011;56762;49.494;11.768;2023-04-25T06:56:22;12.32;;;10.05;;
69542;SDS011;56762;49.494;11.768;2023-04-25T06:58:50;18.10;;;16.20;;
69542;SDS011;56762;49.494;11.768;2023-04-25T07:01:18;8.75;;;6.20;;
69542;SDS011;56762;49.494;11.768;2023-04-25T07:03:46;8.73;;;5.95;;
69542;SDS011;56762;49.494;11.768;2023-04-25T07:06:14;6.90;;;3.72;;
69542;SDS011;56762;49.494;11.768;2023-04-25T07:08:43;5.97;;;3.97;;
69542;SDS011;56762;49.494;11.768;2023-04-25T07:11:11;5.07;;;2.57;;
69542;SDS011;56762;49.494;11.768;2023-04-25T07:13:39;5.60;;;2.75;;
69542;SDS011;56762;49.494;11.768;2023-04-25T07:16:07;4.32;;;2.78;;
69542;SDS011;56762;49.494;11.768;2023-04-25T07:18:34;4.65;;;2.65;;
69542;SDS011;56762;49.494;11.768;2023-04-25T07:21:03;6.18;;;3.55;;
69542;SDS011;56762;49.494;11.768;2023-04-25T07:23:31;6.13;;;2.80;;
69542;SDS011;56762;49.494;11.768;2023-04-25T07:26:00;7.13;;;3.05;;
69542;SDS011;56762;49.494;11.768;2023-04-25T07:28:28;6.07;;;3.20;;
69542;SDS011;56762;49.494;11.768;2023-04-25T07:30:56;6.50;;;2.80;;
69542;SDS011;56762;49.494;11.768;2023-04-25T07:33:24;5.03;;;2.63;;
69542;SDS011;56762;49.494;11.768;2023-04-25T07:35:52;5.57;;;2.87;;
69542;SDS011;56762;49.494;11.768;2023-04-25T07:38:21;6.32;;;3.30;;
69542;SDS011;56762;49.494;11.768;2023-04-25T07:40:49;6.82;;;3.10;;
69542;SDS011;56762;49.494;11.768;2023-04-25T07:43:18;6.47;;;3.75;;
69542;SDS011;56762;49.494;11.768;2023-04-25T07:45:46;4.22;;;2.40;;
69542;SDS011;56762;49.494;11.768;2023-04-25T07:48:16;4.70;;;2.33;;
69542;SDS011;56762;49.494;11.768;2023-04-25T07:50:44;4.10;;;2.20;;
69542;SDS011;56762;49.494;11.768;2023-04-25T07:53:12;4.43;;;2.40;;
69542;SDS011;56762;49.494;11.768;2023-04-25T07:55:40;3.33;;;1.92;;
69542;SDS011;56762;49.494;11.768;2023-04-25T07:58:08;5.03;;;2.65;;
69542;SDS011;56762;49.494;11.768;2023-04-25T08:00:38;6.43;;;2.97;;
69542;SDS011;56762;49.494;11.768;2023-04-25T08:03:09;6.30;;;2.58;;
69542;SDS011;56762;49.494;11.768;2023-04-25T08:05:37;4.95;;;2.65;;
69542;SDS011;56762;49.494;11.768;2023-04-25T08:08:05;12.57;;;6.18;;
69542;SDS011;56762;49.494;11.768;2023-04-25T08:10:34;10.02;;;4.93;;
69542;SDS011;56762;49.494;11.768;2023-04-25T08:13:01;8.20;;;3.60;;
69542;SDS011;56762;49.494;11.768;2023-04-25T08:15:29;13.35;;;5.13;;
69542;SDS011;56762;49.494;11.768;2023-04-25T08:17:58;8.15;;;3.08;;
69542;SDS011;56762;49.494;11.768;2023-04-25T08:20:26;12.43;;;3.42;;
69542;SDS011;56762;49.494;11.768;2023-04-25T08:22:53;12.55;;;4.60;;
69542;SDS011;56762;49.494;11.768;2023-04-25T08:25:21;17.60;;;5.50;;
69542;SDS011;56762;49.494;11.768;2023-04-25T08:27:49;11.02;;;3.67;;
69542;SDS011;56762;49.494;11.768;2023-04-25T08:30:17;20.73;;;6.45;;
69542;SDS011;56762;49.494;11.768;2023-04-25T08:32:45;11.27;;;4.63;;
69542;SDS011;56762;49.494;11.768;2023-04-25T08:35:14;14.60;;;5.15;;
69542;SDS011;56762;49.494;11.768;2023-04-25T08:37:43;16.00;;;5.10;;
69542;SDS011;56762;49.494;11.768;2023-04-25T08:40:12;10.07;;;3.67;;
69542;SDS011;56762;49.494;11.768;2023-04-25T08:42:41;8.57;;;3.40;;
69542;SDS011;56762;49.494;11.768;2023-04-25T08:45:10;10.32;;;3.67;;
69542;SDS011;56762;49.494;11.768;2023-04-25T08:47:38;8.75;;;3.00;;
69542;SDS011;56762;49.494;11.768;2023-04-25T08:50:16;8.43;;;2.83;;
69542;SDS011;56762;49.494;11.768;2023-04-25T08:52:45;4.22;;;1.70;;
69542;SDS011;56762;49.494;11.768;2023-04-25T08:55:14;6.40;;;2.22;;
69542;SDS011;56762;49.494;11.768;2023-04-25T08:57:43;4.95;;;2.42;;
69542;SDS011;56762;49.494;11.768;2023-04-25T09:00:12;5.55;;;2.80;;
69542;SDS011;56762;49.494;11.768;2023-04-25T09:02:41;4.03;;;2.27;;
69542;SDS011;56762;49.494;11.768;2023-04-25T09:05:11;3.63;;;2.28;;
69542;SDS011;56762;49.494;11.768;2023-04-25T09:07:41;8.27;;;3.70;;
69542;SDS011;56762;49.494;11.768;2023-04-25T09:10:09;7.50;;;4.53;;
69542;SDS011;56762;49.494;11.768;2023-04-25T09:12:37;4.80;;;3.13;;
69542;SDS011;56762;49.494;11.768;2023-04-25T09:15:06;5.77;;;2.80;;
69542;SDS011;56762;49.494;11.768;2023-04-25T09:17:35;4.35;;;2.30;;
69542;SDS011;56762;49.494;11.768;2023-04-25T09:20:07;4.18;;;1.90;;
69542;SDS011;56762;49.494;11.768;2023-04-25T09:22:36;6.13;;;2.42;;
69542;SDS011;56762;49.494;11.768;2023-04-25T09:25:09;4.57;;;2.03;;
69542;SDS011;56762;49.494;11.768;2023-04-25T09:27:48;6.80;;;2.30;;
69542;SDS011;56762;49.494;11.768;2023-04-25T09:30:18;3.97;;;2.20;;
69542;SDS011;56762;49.494;11.768;2023-04-25T09:32:46;16.80;;;6.82;;
69542;SDS011;56762;49.494;11.768;2023-04-25T09:35:23;17.98;;;7.80;;
69542;SDS011;56762;49.494;11.768;2023-04-25T09:37:53;26.58;;;8.40;;
69542;SDS011;56762;49.494;11.768;2023-04-25T09:40:22;9.03;;;3.80;;
69542;SDS011;56762;49.494;11.768;2023-04-25T09:42:50;5.93;;;2.80;;
69542;SDS011;56762;49.494;11.768;2023-04-25T09:45:18;6.47;;;2.90;;
69542;SDS011;56762;49.494;11.768;2023-04-25T09:47:46;5.38;;;2.70;;
69542;SDS011;56762;49.494;11.768;2023-04-25T09:50:14;5.55;;;2.80;;
69542;SDS011;56762;49.494;11.768;2023-04-25T09:52:42;6.93;;;3.30;;
69542;SDS011;56762;49.494;11.768;2023-04-25T09:55:11;6.88;;;3.50;;
69542;SDS011;56762;49.494;11.768;2023-04-25T09:57:40;6.15;;;2.95;;
69542;SDS011;56762;49.494;11.768;2023-04-25T10:00:08;6.40;;;2.83;;
69542;SDS011;56762;49.494;11.768;2023-04-25T10:02:39;5.20;;;3.38;;
69542;SDS011;56762;49.494;11.768;2023-04-25T10:05:10;6.03;;;3.20;;
69542;SDS011;56762;49.494;11.768;2023-04-25T10:07:38;5.55;;;2.83;;
69542;SDS011;56762;49.494;11.768;2023-04-25T10:10:07;5.05;;;2.80;;
69542;SDS011;56762;49.494;11.768;2023-04-25T10:12:41;6.63;;;3.10;;
69542;SDS011;56762;49.494;11.768;2023-04-25T10:15:10;7.38;;;3.47;;
69542;SDS011;56762;49.494;11.768;2023-04-25T10:17:38;8.37;;;3.53;;
69542;SDS011;56762;49.494;11.768;2023-04-25T10:20:07;6.22;;;2.65;;
69542;SDS011;56762;49.494;11.768;2023-04-25T10:22:37;5.78;;;2.80;;
69542;SDS011;56762;49.494;11.768;2023-04-25T10:25:08;4.88;;;2.90;;
69542;SDS011;56762;49.494;11.768;2023-04-25T10:27:38;5.35;;;2.92;;
69542;SDS011;56762;49.494;11.768;2023-04-25T10:30:08;4.90;;;2.57;;
69542;SDS011;56762;49.494;11.768;2023-04-25T10:32:38;6.55;;;3.10;;
69542;SDS011;56762;49.494;11.768;2023-04-25T10:35:10;5.00;;;2.72;;
69542;SDS011;56762;49.494;11.768;2023-04-25T10:40:31;6.93;;;2.72;;
69542;SDS011;56762;49.494;11.768;2023-04-25T10:46:04;4.25;;;2.33;;
69542;SDS011;56762;49.494;11.768;2023-04-25T10:48:44;5.85;;;2.60;;
69542;SDS011;56762;49.494;11.768;2023-04-25T10:51:19;4.72;;;2.15;;
69542;SDS011;56762;49.494;11.768;2023-04-25T10:53:56;3.67;;;2.03;;
69542;SDS011;56762;49.494;11.768;2023-04-25T10:56:25;6.47;;;1.90;;
69542;SDS011;56762;49.494;11.768;2023-04-25T10:59:02;5.35;;;2.33;;
69542;SDS011;56762;49.494;11.768;2023-04-25T11:01:36;6.60;;;2.00;;
69542;SDS011;56762;49.494;11.768;2023-04-25T11:04:06;4.30;;;1.80;;
69542;SDS011;56762;49.494;11.768;2023-04-25T11:06:53;4.53;;;2.45;;
69542;SDS011;56762;49.494;11.768;2023-04-25T11:09:32;5.67;;;2.47;;
69542;SDS011;56762;49.494;11.768;2023-04-25T11:12:01;7.07;;;2.25;;
69542;SDS011;56762;49.494;11.768;2023-04-25T11:14:28;4.85;;;2.22;;
69542;SDS011;56762;49.494;11.768;2023-04-25T11:16:58;4.53;;;2.38;;
69542;SDS011;56762;49.494;11.768;2023-04-25T11:19:27;5.38;;;2.40;;
69542;SDS011;56762;49.494;11.768;2023-04-25T11:21:56;4.37;;;2.20;;
69542;SDS011;56762;49.494;11.768;2023-04-25T11:24:26;5.20;;;2.58;;
69542;SDS011;56762;49.494;11.768;2023-04-25T11:26:54;4.95;;;2.67;;
69542;SDS011;56762;49.494;11.768;2023-04-25T11:29:22;6.00;;;2.40;;
69542;SDS011;56762;49.494;11.768;2023-04-25T11:31:50;5.20;;;2.92;;
69542;SDS011;56762;49.494;11.768;2023-04-25T11:34:19;3.60;;;2.27;;
69542;SDS011;56762;49.494;11.768;2023-04-25T11:36:48;6.32;;;2.08;;
69542;SDS011;56762;49.494;11.768;2023-04-25T11:39:18;3.40;;;2.10;;
69542;SDS011;56762;49.494;11.768;2023-04-25T11:41:46;5.03;;;2.00;;
69542;SDS011;56762;49.494;11.768;2023-04-25T11:44:15;3.53;;;1.83;;
69542;SDS011;56762;49.494;11.768;2023-04-25T11:46:43;3.57;;;1.60;;
69542;SDS011;56762;49.494;11.768;2023-04-25T11:49:10;4.45;;;1.50;;
69542;SDS011;56762;49.494;11.768;2023-04-25T11:51:40;3.00;;;1.73;;
69542;SDS011;56762;49.494;11.768;2023-04-25T11:54:09;3.03;;;1.48;;
69542;SDS011;56762;49.494;11.768;2023-04-25T11:56:40;4.03;;;1.55;;
69542;SDS011;56762;49.494;11.768;2023-04-25T11:59:08;3.87;;;1.40;;
69542;SDS011;56762;49.494;11.768;2023-04-25T12:01:38;5.05;;;1.65;;
69542;SDS011;56762;49.494;11.768;2023-04-25T12:04:10;4.95;;;1.80;;
69542;SDS011;56762;49.494;11.768;2023-04-25T12:06:41;5.78;;;2.05;;
69542;SDS011;56762;49.494;11.768;2023-04-25T12:09:10;5.70;;;1.95;;
69542;SDS011;56762;49.494;11.768;2023-04-25T12:11:43;3.23;;;1.50;;
69542;SDS011;56762;49.494;11.768;2023-04-25T12:14:12;8.35;;;3.42;;
69542;SDS011;56762;49.494;11.768;2023-04-25T12:16:49;3.20;;;1.50;;
69542;SDS011;56762;49.494;11.768;2023-04-25T12:19:19;3.42;;;1.35;;
69542;SDS011;56762;49.494;11.768;2023-04-25T12:21:49;4.40;;;1.25;;
69542;SDS011;56762;49.494;11.768;2023-04-25T12:24:21;2.43;;;1.20;;
69542;SDS011;56762;49.494;11.768;2023-04-25T12:26:52;2.28;;;0.80;;
69542;SDS011;56762;49.494;11.768;2023-04-25T12:29:21;3.45;;;1.10;;
69542;SDS011;56762;49.494;11.768;2023-04-25T12:31:55;2.85;;;1.20;;
69542;SDS011;56762;49.494;11.768;2023-04-25T12:34:23;3.33;;;1.85;;
69542;SDS011;56762;49.494;11.768;2023-04-25T12:36:53;2.20;;;0.90;;
69542;SDS011;56762;49.494;11.768;2023-04-25T12:39:23;4.40;;;1.00;;
69542;SDS011;56762;49.494;11.768;2023-04-25T12:41:52;2.45;;;0.98;;
69542;SDS011;56762;49.494;11.768;2023-04-25T12:44:20;2.55;;;0.98;;
69542;SDS011;56762;49.494;11.768;2023-04-25T12:46:49;2.40;;;0.70;;
69542;SDS011;56762;49.494;11.768;2023-04-25T12:49:17;4.13;;;0.70;;
69542;SDS011;56762;49.494;11.768;2023-04-25T12:51:45;3.20;;;1.70;;
69542;SDS011;56762;49.494;11.768;2023-04-25T12:54:15;3.25;;;1.00;;
69542;SDS011;56762;49.494;11.768;2023-04-25T12:56:43;2.42;;;0.98;;
69542;SDS011;56762;49.494;11.768;2023-04-25T12:59:12;2.15;;;0.80;;
69542;SDS011;56762;49.494;11.768;2023-04-25T13:01:40;3.63;;;1.23;;
69542;SDS011;56762;49.494;11.768;2023-04-25T13:04:11;2.47;;;1.17;;
69542;SDS011;56762;49.494;11.768;2023-04-25T13:06:39;1.33;;;0.45;;
69542;SDS011;56762;49.494;11.768;2023-04-25T13:09:07;1.60;;;0.40;;
69542;SDS011;56762;49.494;11.768;2023-04-25T13:11:36;1.27;;;0.30;;
69542;SDS011;56762;49.494;11.768;2023-04-25T13:14:04;2.20;;;0.40;;
69542;SDS011;56762;49.494;11.768;2023-04-25T13:16:32;1.10;;;0.30;;
69542;SDS011;56762;49.494;11.768;2023-04-25T13:19:00;1.20;;;0.40;;
69542;SDS011;56762;49.494;11.768;2023-04-25T13:21:29;1.48;;;0.30;;
69542;SDS011;56762;49.494;11.768;2023-04-25T13:23:58;2.10;;;0.50;;
69542;SDS011;56762;49.494;11.768;2023-04-25T13:26:26;1.23;;;0.50;;
69542;SDS011;56762;49.494;11.768;2023-04-25T13:28:55;1.73;;;0.60;;
69542;SDS011;56762;49.494;11.768;2023-04-25T13:31:23;5.28;;;2.53;;
69542;SDS011;56762;49.494;11.768;2023-04-25T13:33:51;2.60;;;0.75;;
69542;SDS011;56762;49.494;11.768;2023-04-25T13:36:20;5.40;;;2.38;;
69542;SDS011;56762;49.494;11.768;2023-04-25T13:38:48;2.50;;;0.70;;
69542;SDS011;56762;49.494;11.768;2023-04-25T13:41:16;1.77;;;0.40;;
69542;SDS011;56762;49.494;11.768;2023-04-25T13:43:45;1.08;;;0.40;;
69542;SDS011;56762;49.494;11.768;2023-04-25T13:46:16;1.33;;;0.50;;
69542;SDS011;56762;49.494;11.768;2023-04-25T13:48:47;1.52;;;0.60;;
69542;SDS011;56762;49.494;11.768;2023-04-25T13:51:20;1.87;;;0.50;;
69542;SDS011;56762;49.494;11.768;2023-04-25T13:53:48;1.45;;;0.40;;
69542;SDS011;56762;49.494;11.768;2023-04-25T13:56:16;2.28;;;0.50;;
69542;SDS011;56762;49.494;11.768;2023-04-25T13:58:45;2.67;;;0.50;;
69542;SDS011;56762;49.494;11.768;2023-04-25T14:01:13;2.05;;;0.77;;
69542;SDS011;56762;49.494;11.768;2023-04-25T14:03:43;6.07;;;2.70;;
69542;SDS011;56762;49.494;11.768;2023-04-25T14:06:11;8.02;;;3.85;;
69542;SDS011;56762;49.494;11.768;2023-04-25T14:08:39;1.92;;;0.60;;
69542;SDS011;56762;49.494;11.768;2023-04-25T14:11:07;3.67;;;1.17;;
69542;SDS011;56762;49.494;11.768;2023-04-25T14:13:35;3.40;;;1.45;;
69542;SDS011;56762;49.494;11.768;2023-04-25T14:16:04;1.50;;;0.97;;
69542;SDS011;56762;49.494;11.768;2023-04-25T14:18:32;2.45;;;1.27;;
69542;SDS011;56762;49.494;11.768;2023-04-25T14:21:01;1.55;;;0.52;;
69542;SDS011;56762;49.494;11.768;2023-04-25T14:23:29;1.77;;;0.70;;
69542;SDS011;56762;49.494;11.768;2023-04-25T14:25:56;2.35;;;0.98;;
69542;SDS011;56762;49.494;11.768;2023-04-25T14:28:24;6.70;;;2.53;;
69542;SDS011;56762;49.494;11.768;2023-04-25T14:30:52;18.27;;;6.65;;
69542;SDS011;56762;49.494;11.768;2023-04-25T14:33:20;22.25;;;7.97;;
69542;SDS011;56762;49.494;11.768;2023-04-25T14:35:47;10.82;;;3.97;;
69542;SDS011;56762;49.494;11.768;2023-04-25T14:38:17;32.92;;;11.93;;
69542;SDS011;56762;49.494;11.768;2023-04-25T14:40:49;32.97;;;11.63;;
69542;SDS011;56762;49.494;11.768;2023-04-25T14:43:17;12.13;;;5.00;;
69542;SDS011;56762;49.494;11.768;2023-04-25T14:45:45;14.60;;;5.05;;
69542;SDS011;56762;49.494;11.768;2023-04-25T14:48:12;5.40;;;1.65;;
69542;SDS011;56762;49.494;11.768;2023-04-25T14:50:41;5.88;;;2.40;;